Airport View

Enter AWOS ICAO identifier for current METAR.

ex. KFNL

KFTG 111853Z 00000KT 10SM FEW160 BKN220 11/M09 A3000

11 Dec 2019 19:04

Frequency: 119.025

Phone: 303-261-9104

Other Area AWOS: KDEN - KBKF - KAPA - KEIK

TAF KDEN 111742Z 1118/1224 22007KT P6SM FEW150 BKN220 FM111900 35007KT P6SM SCT150 BKN220 FM120100 23005KT P6SM SCT100 BKN150 FM120500 19007KT P6SM SCT150 FM122100 26009KT P6SM SCT080 BKN120